National Weather Service Raw Text Product

Displaying AFOS PIL: TAFFOD Received: 2018-01-12 05:29 UTC


549 
FTUS43 KDMX 120529
TAFFOD
TAF
KFOD 120529Z 1206/1306 34013KT P6SM BKN014
     FM120900 35009KT P6SM SKC
     FM122300 36006KT P6SM BKN110=